createdAt,value
2018-01-08T00:00:01.033Z,7.55
2018-01-08T00:00:05.149Z,7.55
2018-01-08T00:00:09.381Z,7.55
2018-01-08T00:00:13.606Z,7.56
2018-01-08T00:00:17.739Z,7.55
2018-01-08T00:00:22.066Z,7.54
2018-01-08T00:00:26.405Z,7.55
2018-01-08T00:00:30.544Z,7.55
2018-01-08T00:00:34.666Z,7.54
2018-01-08T00:00:38.786Z,7.55
2018-01-08T00:00:43.114Z,7.55
2018-01-08T00:00:47.234Z,7.56
2018-01-08T00:00:51.374Z,7.56
2018-01-08T00:00:55.823Z,7.55
2018-01-08T00:00:59.849Z,7.55
2018-01-08T00:01:03.966Z,7.56
2018-01-08T00:01:08.004Z,7.56
2018-01-08T00:01:12.137Z,7.56
2018-01-08T00:01:16.397Z,7.57
2018-01-08T00:01:20.529Z,7.56
2018-01-08T00:01:24.764Z,7.56
2018-01-08T00:01:29.003Z,7.56
2018-01-08T00:01:33.341Z,7.56
2018-01-08T00:01:37.356Z,7.56
2018-01-08T00:01:41.493Z,7.55
2018-01-08T00:01:45.630Z,7.56
2018-01-08T00:01:49.956Z,7.57
2018-01-08T00:01:54.181Z,7.55
2018-01-08T00:01:58.403Z,7.56
2018-01-08T00:02:02.962Z,7.56
2018-01-08T00:02:06.774Z,7.57
2018-01-08T00:02:10.888Z,7.57
2018-01-08T00:02:15.009Z,7.56
2018-01-08T00:02:19.245Z,7.56
2018-01-08T00:02:23.184Z,7.56
2018-01-08T00:02:27.524Z,7.57
2018-01-08T00:02:31.746Z,7.58
2018-01-08T00:02:35.768Z,7.57
2018-01-08T00:02:39.784Z,7.57
2018-01-08T00:02:44.132Z,7.57
2018-01-08T00:02:48.382Z,7.58
2018-01-08T00:02:52.724Z,7.58
2018-01-08T00:02:57.076Z,7.57
2018-01-08T00:03:01.273Z,7.57
2018-01-08T00:03:05.640Z,7.57
2018-01-08T00:03:09.988Z,7.58
2018-01-08T00:03:14.218Z,7.58
2018-01-08T00:03:18.347Z,7.58
2018-01-08T00:03:22.482Z,7.58
2018-01-08T00:03:26.916Z,7.57
2018-01-08T00:03:30.923Z,7.58
2018-01-08T00:03:34.938Z,7.58
2018-01-08T00:03:39.062Z,7.59
2018-01-08T00:03:43.301Z,7.58
2018-01-08T00:03:47.429Z,7.57
2018-01-08T00:03:51.779Z,7.58
2018-01-08T00:03:56.001Z,7.59
2018-01-08T00:04:00.353Z,7.58
2018-01-08T00:04:04.413Z,7.59
2018-01-08T00:04:08.318Z,7.6
2018-01-08T00:04:12.646Z,7.59
2018-01-08T00:04:16.877Z,7.6
2018-01-08T00:04:21.093Z,7.58
2018-01-08T00:04:25.373Z,7.6
2018-01-08T00:04:29.660Z,7.59
2018-01-08T00:04:33.780Z,7.59
2018-01-08T00:04:37.966Z,7.6
2018-01-08T00:04:42.086Z,7.6
2018-01-08T00:04:46.094Z,7.6
2018-01-08T00:04:50.338Z,7.6
2018-01-08T00:04:54.573Z,7.6
2018-01-08T00:04:58.811Z,7.6
2018-01-08T00:05:03.060Z,7.6
2018-01-08T00:05:07.295Z,7.59
2018-01-08T00:05:11.528Z,7.6
2018-01-08T00:05:15.764Z,7.6
2018-01-08T00:05:19.995Z,7.6
2018-01-08T00:05:24.018Z,7.61
2018-01-08T00:05:28.157Z,7.6
2018-01-08T00:05:32.389Z,7.6
2018-01-08T00:05:36.624Z,7.61
2018-01-08T00:05:40.768Z,7.61
2018-01-08T00:05:45.001Z,7.61
2018-01-08T00:05:49.331Z,7.61
2018-01-08T00:05:53.560Z,7.6
2018-01-08T00:05:57.693Z,7.61
2018-01-08T00:06:01.924Z,7.61
2018-01-08T00:06:06.260Z,7.61
2018-01-08T00:06:10.391Z,7.61
2018-01-08T00:06:14.524Z,7.61
2018-01-08T00:06:18.752Z,7.62
2018-01-08T00:06:23.098Z,7.6
2018-01-08T00:06:27.429Z,7.61
2018-01-08T00:06:31.661Z,7.61
2018-01-08T00:06:35.777Z,7.61
2018-01-08T00:06:40.007Z,7.61
2018-01-08T00:06:43.836Z,7.61
2018-01-08T00:06:48.200Z,7.62
2018-01-08T00:06:52.577Z,7.61
2018-01-08T00:06:56.767Z,7.61
2018-01-08T00:07:00.916Z,7.61
2018-01-08T00:07:05.263Z,7.62
2018-01-08T00:07:09.368Z,7.61
2018-01-08T00:07:13.508Z,7.61
2018-01-08T00:07:17.745Z,7.61
2018-01-08T00:07:21.978Z,7.61
2018-01-08T00:07:26.314Z,7.62
2018-01-08T00:07:30.536Z,7.62
2018-01-08T00:07:34.783Z,7.61
2018-01-08T00:07:39.013Z,7.61
2018-01-08T00:07:43.263Z,7.61
2018-01-08T00:07:47.601Z,7.61
2018-01-08T00:07:51.936Z,7.61
2018-01-08T00:07:56.273Z,7.61
2018-01-08T00:08:00.412Z,7.61
2018-01-08T00:08:04.661Z,7.61
2018-01-08T00:08:08.884Z,7.61
2018-01-08T00:08:13.005Z,7.61
2018-01-08T00:08:17.344Z,7.61
2018-01-08T00:08:21.581Z,7.61
2018-01-08T00:08:25.815Z,7.61
2018-01-08T00:08:29.947Z,7.61
2018-01-08T00:08:34.035Z,7.61
2018-01-08T00:08:38.158Z,7.6
2018-01-08T00:08:42.282Z,7.6
2018-01-08T00:08:46.508Z,7.6
2018-01-08T00:08:50.737Z,7.6
2018-01-08T00:08:55.069Z,7.6
2018-01-08T00:08:59.316Z,7.6
2018-01-08T00:09:03.679Z,7.6
2018-01-08T00:09:07.915Z,7.6
2018-01-08T00:09:12.267Z,7.6
2018-01-08T00:09:16.384Z,7.6
2018-01-08T00:09:20.711Z,7.6
2018-01-08T00:09:24.834Z,7.6
2018-01-08T00:09:29.073Z,7.6
2018-01-08T00:09:33.428Z,7.6
2018-01-08T00:09:37.358Z,7.6
2018-01-08T00:09:41.684Z,7.6
2018-01-08T00:09:45.906Z,7.6
2018-01-08T00:09:50.047Z,7.6
2018-01-08T00:09:54.311Z,7.6
2018-01-08T00:09:58.448Z,7.59
2018-01-08T00:10:02.716Z,7.6
2018-01-08T00:10:06.958Z,7.6
2018-01-08T00:10:11.192Z,7.6
2018-01-08T00:10:15.310Z,7.6
2018-01-08T00:10:19.553Z,7.59
2018-01-08T00:10:23.924Z,7.6
2018-01-08T00:10:28.045Z,7.59
2018-01-08T00:10:32.066Z,7.6
2018-01-08T00:10:36.197Z,7.59
2018-01-08T00:10:40.211Z,7.6
2018-01-08T00:10:44.449Z,7.59
2018-01-08T00:10:48.585Z,7.6
2018-01-08T00:10:52.918Z,7.59
2018-01-08T00:10:57.154Z,7.59
2018-01-08T00:11:01.750Z,7.59
2018-01-08T00:11:05.985Z,7.58
2018-01-08T00:11:10.123Z,7.58
2018-01-08T00:11:14.145Z,7.58
2018-01-08T00:11:18.160Z,7.59
2018-01-08T00:11:22.508Z,7.59
2018-01-08T00:11:26.737Z,7.58
2018-01-08T00:11:30.869Z,7.58
2018-01-08T00:11:34.677Z,7.58
2018-01-08T00:11:38.901Z,7.6
2018-01-08T00:11:43.241Z,7.59
2018-01-08T00:11:47.461Z,7.58
2018-01-08T00:11:51.802Z,7.58
2018-01-08T00:11:56.134Z,7.58
2018-01-08T00:12:00.373Z,7.58
2018-01-08T00:12:04.396Z,7.58
2018-01-08T00:12:08.517Z,7.57
2018-01-08T00:12:12.661Z,7.57
2018-01-08T00:12:16.581Z,7.58
2018-01-08T00:12:20.814Z,7.58
2018-01-08T00:12:25.155Z,7.58
2018-01-08T00:12:29.482Z,7.58
2018-01-08T00:12:33.728Z,7.57
2018-01-08T00:12:37.644Z,7.58
2018-01-08T00:12:41.873Z,7.58
2018-01-08T00:12:46.222Z,7.58
2018-01-08T00:12:50.357Z,7.57
2018-01-08T00:12:54.713Z,7.58
2018-01-08T00:12:58.948Z,7.58
2018-01-08T00:13:03.328Z,7.56
2018-01-08T00:13:07.552Z,7.58
2018-01-08T00:13:11.673Z,7.57
2018-01-08T00:13:15.695Z,7.58
2018-01-08T00:13:19.841Z,7.57
2018-01-08T00:13:24.173Z,7.57
2018-01-08T00:13:28.522Z,7.58
2018-01-08T00:13:32.659Z,7.58
2018-01-08T00:13:36.787Z,7.57
2018-01-08T00:13:41.115Z,7.57
2018-01-08T00:13:45.224Z,7.57
2018-01-08T00:13:49.552Z,7.57
2018-01-08T00:13:53.898Z,7.57
2018-01-08T00:13:58.126Z,7.57
2018-01-08T00:14:02.348Z,7.57
2018-01-08T00:14:06.485Z,7.56
2018-01-08T00:14:10.730Z,7.57
2018-01-08T00:14:15.076Z,7.57
2018-01-08T00:14:19.409Z,7.58
2018-01-08T00:14:23.730Z,7.58
2018-01-08T00:14:27.847Z,7.57
2018-01-08T00:14:31.852Z,7.57
2018-01-08T00:14:35.970Z,7.57
2018-01-08T00:14:40.227Z,7.57
2018-01-08T00:14:44.558Z,7.57
2018-01-08T00:14:48.788Z,7.57
2018-01-08T00:14:53.106Z,7.57
2018-01-08T00:14:57.214Z,7.56
2018-01-08T00:15:01.569Z,7.56
2018-01-08T00:15:05.696Z,7.57
2018-01-08T00:15:09.931Z,7.57
2018-01-08T00:15:14.315Z,7.56
2018-01-08T00:15:18.323Z,7.58
2018-01-08T00:15:22.441Z,7.57
2018-01-08T00:15:26.776Z,7.57
2018-01-08T00:15:31.115Z,7.57
2018-01-08T00:15:35.132Z,7.56
2018-01-08T00:15:39.368Z,7.56
2018-01-08T00:15:43.612Z,7.56
2018-01-08T00:15:47.962Z,7.57
2018-01-08T00:15:52.307Z,7.57
2018-01-08T00:15:56.324Z,7.56
2018-01-08T00:16:00.446Z,7.56
2018-01-08T00:16:04.452Z,7.56
2018-01-08T00:16:08.574Z,7.56
2018-01-08T00:16:12.811Z,7.57
2018-01-08T00:16:17.026Z,7.56
2018-01-08T00:16:21.270Z,7.56
2018-01-08T00:16:25.294Z,7.57
2018-01-08T00:16:29.634Z,7.56
2018-01-08T00:16:33.660Z,7.56
2018-01-08T00:16:37.804Z,7.56
2018-01-08T00:16:41.872Z,7.56
2018-01-08T00:16:46.110Z,7.57
2018-01-08T00:16:50.331Z,7.57
2018-01-08T00:16:54.686Z,7.56
2018-01-08T00:16:58.901Z,7.57
2018-01-08T00:17:03.173Z,7.57
2018-01-08T00:17:07.393Z,7.58
2018-01-08T00:17:11.735Z,7.57
2018-01-08T00:17:15.866Z,7.56
2018-01-08T00:17:19.776Z,7.57
2018-01-08T00:17:23.748Z,7.57
2018-01-08T00:17:27.885Z,7.57
2018-01-08T00:17:31.903Z,7.56
2018-01-08T00:17:35.820Z,7.56
2018-01-08T00:17:39.742Z,7.56
2018-01-08T00:17:43.769Z,7.56
2018-01-08T00:17:47.917Z,7.56
2018-01-08T00:17:51.934Z,7.56
2018-01-08T00:17:56.270Z,7.56
2018-01-08T00:18:00.507Z,7.56
2018-01-08T00:18:04.744Z,7.56
2018-01-08T00:18:09.093Z,7.57
2018-01-08T00:18:13.312Z,7.56
2018-01-08T00:18:17.659Z,7.56
2018-01-08T00:18:21.781Z,7.56
2018-01-08T00:18:26.111Z,7.57
2018-01-08T00:18:30.439Z,7.56
2018-01-08T00:18:34.352Z,7.56
2018-01-08T00:18:38.374Z,7.56
2018-01-08T00:18:42.703Z,7.55
2018-01-08T00:18:47.028Z,7.56
2018-01-08T00:18:51.374Z,7.56
2018-01-08T00:18:55.704Z,7.56
2018-01-08T00:18:59.939Z,7.56
2018-01-08T00:19:04.272Z,7.56
2018-01-08T00:19:08.501Z,7.56
2018-01-08T00:19:12.725Z,7.56
2018-01-08T00:19:17.060Z,7.55
2018-01-08T00:19:20.977Z,7.56
2018-01-08T00:19:24.993Z,7.56
2018-01-08T00:19:29.048Z,7.56
2018-01-08T00:19:33.073Z,7.55
2018-01-08T00:19:37.093Z,7.55
2018-01-08T00:19:41.230Z,7.55
2018-01-08T00:19:45.462Z,7.55
2018-01-08T00:19:49.480Z,7.56
2018-01-08T00:19:53.528Z,7.56
2018-01-08T00:19:57.869Z,7.55
2018-01-08T00:20:02.137Z,7.55
2018-01-08T00:20:06.268Z,7.55
2018-01-08T00:20:10.427Z,7.56
2018-01-08T00:20:14.653Z,7.56
2018-01-08T00:20:18.787Z,7.56
2018-01-08T00:20:22.824Z,7.55
2018-01-08T00:20:27.036Z,7.56
2018-01-08T00:20:31.372Z,7.56
2018-01-08T00:20:35.600Z,7.56
2018-01-08T00:20:39.617Z,7.55
2018-01-08T00:20:43.870Z,7.55
2018-01-08T00:20:47.989Z,7.55
2018-01-08T00:20:52.002Z,7.55
2018-01-08T00:20:56.351Z,7.55
2018-01-08T00:21:00.474Z,7.54
2018-01-08T00:21:04.689Z,7.56
2018-01-08T00:21:08.501Z,7.55
2018-01-08T00:21:12.623Z,7.55
2018-01-08T00:21:16.862Z,7.55
2018-01-08T00:21:21.095Z,7.54
2018-01-08T00:21:25.430Z,7.55
2018-01-08T00:21:29.341Z,7.54
2018-01-08T00:21:33.402Z,7.55
2018-01-08T00:21:37.517Z,7.55
2018-01-08T00:21:41.733Z,7.55
2018-01-08T00:21:45.799Z,7.55
2018-01-08T00:21:49.924Z,7.55
2018-01-08T00:21:54.152Z,7.55
2018-01-08T00:21:58.381Z,7.55
2018-01-08T00:22:02.608Z,7.55
2018-01-08T00:22:06.633Z,7.54
2018-01-08T00:22:10.651Z,7.54
2018-01-08T00:22:14.895Z,7.55
2018-01-08T00:22:19.132Z,7.55
2018-01-08T00:22:23.349Z,7.55
2018-01-08T00:22:27.489Z,7.54
2018-01-08T00:22:31.710Z,7.55
2018-01-08T00:22:35.744Z,7.54
2018-01-08T00:22:39.879Z,7.54
2018-01-08T00:22:44.001Z,7.55
2018-01-08T00:22:48.349Z,7.54
2018-01-08T00:22:52.696Z,7.55
2018-01-08T00:22:56.825Z,7.54
2018-01-08T00:23:01.167Z,7.55
2018-01-08T00:23:05.396Z,7.54
2018-01-08T00:23:09.722Z,7.54
2018-01-08T00:23:13.955Z,7.54
2018-01-08T00:23:18.090Z,7.54
2018-01-08T00:23:22.316Z,7.54
2018-01-08T00:23:26.342Z,7.55
2018-01-08T00:23:30.678Z,7.53
2018-01-08T00:23:34.805Z,7.54
2018-01-08T00:23:38.950Z,7.54
2018-01-08T00:23:42.981Z,7.54
2018-01-08T00:23:47.119Z,7.54
2018-01-08T00:23:51.366Z,7.54
2018-01-08T00:23:55.701Z,7.54
2018-01-08T00:24:00.045Z,7.54
2018-01-08T00:24:04.492Z,7.53
2018-01-08T00:24:08.741Z,7.54
2018-01-08T00:24:12.864Z,7.53
2018-01-08T00:24:17.249Z,7.54
2018-01-08T00:24:21.595Z,7.53
2018-01-08T00:24:25.504Z,7.54
2018-01-08T00:24:29.633Z,7.53
2018-01-08T00:24:33.761Z,7.53
2018-01-08T00:24:37.914Z,7.52
2018-01-08T00:24:42.145Z,7.54
2018-01-08T00:24:46.257Z,7.54
2018-01-08T00:24:50.595Z,7.52
2018-01-08T00:24:54.831Z,7.53
2018-01-08T00:24:59.216Z,7.53
2018-01-08T00:25:03.638Z,7.53
2018-01-08T00:25:07.978Z,7.53
2018-01-08T00:25:12.096Z,7.53
2018-01-08T00:25:16.416Z,7.52
2018-01-08T00:25:20.557Z,7.53
2018-01-08T00:25:24.793Z,7.53
2018-01-08T00:25:29.124Z,7.52
2018-01-08T00:25:33.352Z,7.53
2018-01-08T00:25:37.485Z,7.52
2018-01-08T00:25:41.829Z,7.52
2018-01-08T00:25:46.059Z,7.52
2018-01-08T00:25:50.303Z,7.52
2018-01-08T00:25:54.632Z,7.52
2018-01-08T00:25:58.962Z,7.52
2018-01-08T00:26:03.246Z,7.52
2018-01-08T00:26:07.377Z,7.52
2018-01-08T00:26:11.505Z,7.52
2018-01-08T00:26:15.743Z,7.52
2018-01-08T00:26:19.992Z,7.52
2018-01-08T00:26:24.234Z,7.52
2018-01-08T00:26:28.359Z,7.51
2018-01-08T00:26:32.391Z,7.52
2018-01-08T00:26:36.397Z,7.52
2018-01-08T00:26:40.547Z,7.52
2018-01-08T00:26:44.778Z,7.51
2018-01-08T00:26:49.016Z,7.52
2018-01-08T00:26:53.254Z,7.52
2018-01-08T00:26:57.572Z,7.51
2018-01-08T00:27:01.905Z,7.51
2018-01-08T00:27:06.039Z,7.52
2018-01-08T00:27:10.377Z,7.51
2018-01-08T00:27:14.722Z,7.52
2018-01-08T00:27:18.965Z,7.52
2018-01-08T00:27:23.206Z,7.51
2018-01-08T00:27:27.353Z,7.52
2018-01-08T00:27:31.465Z,7.51
2018-01-08T00:27:35.494Z,7.51
2018-01-08T00:27:39.625Z,7.51
2018-01-08T00:27:43.953Z,7.51
2018-01-08T00:27:48.075Z,7.52
2018-01-08T00:27:52.419Z,7.51
2018-01-08T00:27:56.419Z,7.51
2018-01-08T00:28:00.747Z,7.51
2018-01-08T00:28:05.129Z,7.51
2018-01-08T00:28:09.366Z,7.51
2018-01-08T00:28:13.473Z,7.51
2018-01-08T00:28:17.604Z,7.52
2018-01-08T00:28:21.744Z,7.52
2018-01-08T00:28:25.861Z,7.52
2018-01-08T00:28:29.999Z,7.51
2018-01-08T00:28:34.240Z,7.51
2018-01-08T00:28:38.369Z,7.51
2018-01-08T00:28:42.692Z,7.51
2018-01-08T00:28:46.913Z,7.52
2018-01-08T00:28:51.254Z,7.52
2018-01-08T00:28:55.594Z,7.52
2018-01-08T00:28:59.828Z,7.51
2018-01-08T00:29:04.059Z,7.51
2018-01-08T00:29:08.274Z,7.51
2018-01-08T00:29:12.394Z,7.51
2018-01-08T00:29:16.320Z,7.51
2018-01-08T00:29:20.352Z,7.52
2018-01-08T00:29:24.754Z,7.51
2018-01-08T00:29:28.899Z,7.52
2018-01-08T00:29:33.014Z,7.51
2018-01-08T00:29:37.235Z,7.51
2018-01-08T00:29:41.491Z,7.52
2018-01-08T00:29:45.831Z,7.52
2018-01-08T00:29:50.117Z,7.53
2018-01-08T00:29:54.468Z,7.51
2018-01-08T00:29:58.694Z,7.52
2018-01-08T00:30:02.975Z,7.52
2018-01-08T00:30:07.140Z,7.52
2018-01-08T00:30:11.163Z,7.52
2018-01-08T00:30:15.391Z,7.52
2018-01-08T00:30:19.631Z,7.51
2018-01-08T00:30:23.867Z,7.52
2018-01-08T00:30:27.988Z,7.52
2018-01-08T00:30:32.222Z,7.51
2018-01-08T00:30:36.264Z,7.52
2018-01-08T00:30:40.377Z,7.52
2018-01-08T00:30:44.397Z,7.52
2018-01-08T00:30:48.547Z,7.52
2018-01-08T00:30:52.910Z,7.52
2018-01-08T00:30:57.144Z,7.52
2018-01-08T00:31:01.279Z,7.51
2018-01-08T00:31:05.309Z,7.51
2018-01-08T00:31:09.432Z,7.52
2018-01-08T00:31:13.453Z,7.52
2018-01-08T00:31:17.784Z,7.51
2018-01-08T00:31:22.021Z,7.52
2018-01-08T00:31:26.270Z,7.51
2018-01-08T00:31:30.468Z,7.52
2018-01-08T00:31:34.230Z,7.52
2018-01-08T00:31:38.460Z,7.51
2018-01-08T00:31:42.586Z,7.51
2018-01-08T00:31:46.624Z,7.51
2018-01-08T00:31:50.656Z,7.51
2018-01-08T00:31:54.910Z,7.51
2018-01-08T00:31:59.128Z,7.51
2018-01-08T00:32:03.364Z,7.5
2018-01-08T00:32:07.583Z,7.51
2018-01-08T00:32:11.912Z,7.5
2018-01-08T00:32:16.156Z,7.51
2018-01-08T00:32:20.172Z,7.51
2018-01-08T00:32:24.419Z,7.51
2018-01-08T00:32:28.645Z,7.52
2018-01-08T00:32:32.653Z,7.51
2018-01-08T00:32:36.465Z,7.5
2018-01-08T00:32:40.683Z,7.5
2018-01-08T00:32:44.803Z,7.5
2018-01-08T00:32:49.191Z,7.5
2018-01-08T00:32:53.415Z,7.5
2018-01-08T00:32:57.746Z,7.49
2018-01-08T00:33:02.087Z,7.5
2018-01-08T00:33:06.222Z,7.5
2018-01-08T00:33:10.466Z,7.5
2018-01-08T00:33:14.710Z,7.5
2018-01-08T00:33:18.829Z,7.5
2018-01-08T00:33:22.947Z,7.49
2018-01-08T00:33:27.069Z,7.49
2018-01-08T00:33:31.219Z,7.49
2018-01-08T00:33:35.459Z,7.49
2018-01-08T00:33:39.466Z,7.49
2018-01-08T00:33:43.711Z,7.49
2018-01-08T00:33:47.837Z,7.49
2018-01-08T00:33:52.188Z,7.49
2018-01-08T00:33:56.531Z,7.49
2018-01-08T00:34:00.780Z,7.49
2018-01-08T00:34:05.273Z,7.48
2018-01-08T00:34:09.508Z,7.49
2018-01-08T00:34:13.739Z,7.48
2018-01-08T00:34:17.764Z,7.48
2018-01-08T00:34:22.007Z,7.48
2018-01-08T00:34:26.037Z,7.48
2018-01-08T00:34:30.369Z,7.48
2018-01-08T00:34:34.619Z,7.48
2018-01-08T00:34:38.632Z,7.48
2018-01-08T00:34:42.742Z,7.48
2018-01-08T00:34:46.980Z,7.48
2018-01-08T00:34:51.344Z,7.48
2018-01-08T00:34:55.579Z,7.48
2018-01-08T00:34:59.912Z,7.47
2018-01-08T00:35:03.891Z,7.47
2018-01-08T00:35:08.158Z,7.47
2018-01-08T00:35:12.292Z,7.47
2018-01-08T00:35:16.628Z,7.47
2018-01-08T00:35:20.758Z,7.47
2018-01-08T00:35:24.981Z,7.47
2018-01-08T00:35:29.214Z,7.46
2018-01-08T00:35:33.445Z,7.46
2018-01-08T00:35:37.781Z,7.46
2018-01-08T00:35:41.804Z,7.47
2018-01-08T00:35:46.150Z,7.45
2018-01-08T00:35:49.961Z,7.46
2018-01-08T00:35:54.187Z,7.46
2018-01-08T00:35:58.410Z,7.45
2018-01-08T00:36:02.741Z,7.46
2018-01-08T00:36:07.077Z,7.46
2018-01-08T00:36:11.312Z,7.45
2018-01-08T00:36:15.553Z,7.46
2018-01-08T00:36:19.684Z,7.45
2018-01-08T00:36:23.818Z,7.44
2018-01-08T00:36:28.025Z,7.45
2018-01-08T00:36:32.360Z,7.44
2018-01-08T00:36:36.600Z,7.44
2018-01-08T00:36:40.837Z,7.44
2018-01-08T00:36:45.188Z,7.44
2018-01-08T00:36:49.328Z,7.44
2018-01-08T00:36:53.676Z,7.44
2018-01-08T00:36:58.022Z,7.43
2018-01-08T00:37:02.351Z,7.43
2018-01-08T00:37:06.692Z,7.43
2018-01-08T00:37:10.914Z,7.43
2018-01-08T00:37:15.060Z,7.43
2018-01-08T00:37:19.296Z,7.43
2018-01-08T00:37:23.427Z,7.43
2018-01-08T00:37:27.758Z,7.43
2018-01-08T00:37:31.994Z,7.42
2018-01-08T00:37:35.912Z,7.42
2018-01-08T00:37:39.921Z,7.42
2018-01-08T00:37:44.034Z,7.42
2018-01-08T00:37:48.377Z,7.42
2018-01-08T00:37:52.716Z,7.42
2018-01-08T00:37:56.846Z,7.43
2018-01-08T00:38:01.062Z,7.43
2018-01-08T00:38:05.292Z,7.42
2018-01-08T00:38:09.612Z,7.42
2018-01-08T00:38:13.754Z,7.43
2018-01-08T00:38:18.004Z,7.42
2018-01-08T00:38:22.344Z,7.42
2018-01-08T00:38:26.672Z,7.42
2018-01-08T00:38:30.885Z,7.41
2018-01-08T00:38:35.126Z,7.41
2018-01-08T00:38:39.353Z,7.42
2018-01-08T00:38:43.369Z,7.41
2018-01-08T00:38:47.480Z,7.41
2018-01-08T00:38:51.824Z,7.4
2018-01-08T00:38:56.059Z,7.41
2018-01-08T00:39:00.408Z,7.42
2018-01-08T00:39:04.697Z,7.41
2018-01-08T00:39:08.932Z,7.4
2018-01-08T00:39:13.171Z,7.4
2018-01-08T00:39:17.458Z,7.41
2018-01-08T00:39:21.788Z,7.41
2018-01-08T00:39:25.900Z,7.41
2018-01-08T00:39:30.143Z,7.41
2018-01-08T00:39:34.181Z,7.4
2018-01-08T00:39:38.203Z,7.4
2018-01-08T00:39:42.441Z,7.41
2018-01-08T00:39:46.778Z,7.41
2018-01-08T00:39:50.919Z,7.4
2018-01-08T00:39:55.137Z,7.4
2018-01-08T00:39:59.376Z,7.41
2018-01-08T00:40:03.909Z,7.4
2018-01-08T00:40:08.164Z,7.4
2018-01-08T00:40:12.515Z,7.4
2018-01-08T00:40:16.866Z,7.4
2018-01-08T00:40:21.002Z,7.39
2018-01-08T00:40:25.227Z,7.39
2018-01-08T00:40:29.453Z,7.4
2018-01-08T00:40:33.692Z,7.4
2018-01-08T00:40:37.808Z,7.4
2018-01-08T00:40:42.045Z,7.4
2018-01-08T00:40:46.374Z,7.39
2018-01-08T00:40:50.705Z,7.39
2018-01-08T00:40:54.824Z,7.39
2018-01-08T00:40:59.060Z,7.39
2018-01-08T00:41:03.204Z,7.4
2018-01-08T00:41:07.443Z,7.39
2018-01-08T00:41:11.584Z,7.39
2018-01-08T00:41:15.919Z,7.39
2018-01-08T00:41:19.841Z,7.39
2018-01-08T00:41:24.173Z,7.4
2018-01-08T00:41:28.176Z,7.39
2018-01-08T00:41:32.291Z,7.4
2018-01-08T00:41:36.296Z,7.39
2018-01-08T00:41:40.518Z,7.39
2018-01-08T00:41:44.541Z,7.39
2018-01-08T00:41:48.936Z,7.4
2018-01-08T00:41:53.275Z,7.39
2018-01-08T00:41:57.511Z,7.4
2018-01-08T00:42:01.956Z,7.4
2018-01-08T00:42:06.092Z,7.38
2018-01-08T00:42:10.324Z,7.39
2018-01-08T00:42:14.673Z,7.39
2018-01-08T00:42:18.798Z,7.39
2018-01-08T00:42:22.936Z,7.39
2018-01-08T00:42:27.287Z,7.39
2018-01-08T00:42:31.511Z,7.39
2018-01-08T00:42:35.535Z,7.39
2018-01-08T00:42:39.766Z,7.39
2018-01-08T00:42:44.001Z,7.39
2018-01-08T00:42:48.066Z,7.4
2018-01-08T00:42:52.494Z,7.4
2018-01-08T00:42:56.741Z,7.39
2018-01-08T00:43:01.075Z,7.4
2018-01-08T00:43:05.672Z,7.39
2018-01-08T00:43:10.058Z,7.39
2018-01-08T00:43:14.281Z,7.39
2018-01-08T00:43:18.612Z,7.39
2018-01-08T00:43:22.839Z,7.39
2018-01-08T00:43:27.068Z,7.4
2018-01-08T00:43:31.284Z,7.39
2018-01-08T00:43:35.505Z,7.39
2018-01-08T00:43:39.622Z,7.4
2018-01-08T00:43:43.862Z,7.41
2018-01-08T00:43:47.979Z,7.4
2018-01-08T00:43:52.217Z,7.39
2018-01-08T00:43:56.534Z,7.39
2018-01-08T00:44:00.784Z,7.4
2018-01-08T00:44:05.024Z,7.4
2018-01-08T00:44:09.045Z,7.4
2018-01-08T00:44:13.284Z,7.4
2018-01-08T00:44:17.514Z,7.4
2018-01-08T00:44:21.650Z,7.39
2018-01-08T00:44:25.772Z,7.4
2018-01-08T00:44:29.994Z,7.39
2018-01-08T00:44:34.325Z,7.39
2018-01-08T00:44:38.560Z,7.41
2018-01-08T00:44:42.906Z,7.4
2018-01-08T00:44:47.134Z,7.4
2018-01-08T00:44:51.277Z,7.4
2018-01-08T00:44:55.634Z,7.4
2018-01-08T00:44:59.868Z,7.4
2018-01-08T00:45:04.163Z,7.4
2018-01-08T00:45:08.290Z,7.4
2018-01-08T00:45:12.518Z,7.4
2018-01-08T00:45:16.739Z,7.4
2018-01-08T00:45:20.862Z,7.41
2018-01-08T00:45:24.984Z,7.4
2018-01-08T00:45:29.110Z,7.4
2018-01-08T00:45:33.247Z,7.4
2018-01-08T00:45:37.525Z,7.4
2018-01-08T00:45:41.761Z,7.41
2018-01-08T00:45:45.990Z,7.41
2018-01-08T00:45:50.123Z,7.4
2018-01-08T00:45:54.357Z,7.4
2018-01-08T00:45:58.600Z,7.4
2018-01-08T00:46:02.735Z,7.4
2018-01-08T00:46:06.962Z,7.4
2018-01-08T00:46:10.979Z,7.4
2018-01-08T00:46:15.090Z,7.41
2018-01-08T00:46:19.321Z,7.41
2018-01-08T00:46:23.346Z,7.41
2018-01-08T00:46:27.449Z,7.42
2018-01-08T00:46:31.583Z,7.41
2018-01-08T00:46:35.724Z,7.41
2018-01-08T00:46:40.136Z,7.41
2018-01-08T00:46:44.261Z,7.4
2018-01-08T00:46:48.604Z,7.41
2018-01-08T00:46:52.833Z,7.41
2018-01-08T00:46:57.044Z,7.41
2018-01-08T00:47:01.205Z,7.41
2018-01-08T00:47:05.551Z,7.41
2018-01-08T00:47:09.460Z,7.41
2018-01-08T00:47:13.809Z,7.4
2018-01-08T00:47:18.041Z,7.41
2018-01-08T00:47:22.260Z,7.41
2018-01-08T00:47:26.589Z,7.41
2018-01-08T00:47:30.816Z,7.42
2018-01-08T00:47:35.042Z,7.41
2018-01-08T00:47:39.270Z,7.41
2018-01-08T00:47:43.486Z,7.41
2018-01-08T00:47:47.507Z,7.42
2018-01-08T00:47:51.727Z,7.42
2018-01-08T00:47:55.844Z,7.42
2018-01-08T00:48:00.191Z,7.41
2018-01-08T00:48:04.716Z,7.42
2018-01-08T00:48:08.543Z,7.41
2018-01-08T00:48:12.881Z,7.42
2018-01-08T00:48:17.121Z,7.42
2018-01-08T00:48:21.372Z,7.42
2018-01-08T00:48:25.599Z,7.41
2018-01-08T00:48:29.825Z,7.42
2018-01-08T00:48:34.058Z,7.42
2018-01-08T00:48:38.174Z,7.42
2018-01-08T00:48:42.524Z,7.41
2018-01-08T00:48:46.663Z,7.42
2018-01-08T00:48:50.909Z,7.41
2018-01-08T00:48:54.934Z,7.42
2018-01-08T00:48:59.162Z,7.42
2018-01-08T00:49:03.400Z,7.42
2018-01-08T00:49:07.733Z,7.42
2018-01-08T00:49:11.959Z,7.42
2018-01-08T00:49:16.198Z,7.42
2018-01-08T00:49:20.324Z,7.42
2018-01-08T00:49:24.561Z,7.42
2018-01-08T00:49:28.804Z,7.42
2018-01-08T00:49:33.051Z,7.42
2018-01-08T00:49:37.291Z,7.42
2018-01-08T00:49:41.417Z,7.42
2018-01-08T00:49:45.540Z,7.42
2018-01-08T00:49:49.795Z,7.43
2018-01-08T00:49:54.018Z,7.42
2018-01-08T00:49:58.412Z,7.42
2018-01-08T00:50:02.546Z,7.43
2018-01-08T00:50:06.797Z,7.43
2018-01-08T00:50:11.055Z,7.42
2018-01-08T00:50:15.435Z,7.42
2018-01-08T00:50:19.544Z,7.42
2018-01-08T00:50:23.902Z,7.41
2018-01-08T00:50:28.256Z,7.42
2018-01-08T00:50:32.490Z,7.42
2018-01-08T00:50:36.720Z,7.42
2018-01-08T00:50:40.953Z,7.41
2018-01-08T00:50:44.990Z,7.41
2018-01-08T00:50:49.000Z,7.42
2018-01-08T00:50:53.246Z,7.42
2018-01-08T00:50:57.583Z,7.43
2018-01-08T00:51:01.817Z,7.42
2018-01-08T00:51:06.104Z,7.42
2018-01-08T00:51:10.027Z,7.43
2018-01-08T00:51:14.264Z,7.42
2018-01-08T00:51:18.588Z,7.42
2018-01-08T00:51:22.857Z,7.42
2018-01-08T00:51:26.994Z,7.42
2018-01-08T00:51:31.322Z,7.43
2018-01-08T00:51:35.458Z,7.43
2018-01-08T00:51:39.700Z,7.44
2018-01-08T00:51:44.050Z,7.43
2018-01-08T00:51:48.166Z,7.43
2018-01-08T00:51:52.288Z,7.43
2018-01-08T00:51:56.513Z,7.43
2018-01-08T00:52:00.754Z,7.42
2018-01-08T00:52:04.975Z,7.43
2018-01-08T00:52:09.103Z,7.42
2018-01-08T00:52:13.327Z,7.43
2018-01-08T00:52:17.658Z,7.43
2018-01-08T00:52:21.887Z,7.44
2018-01-08T00:52:25.897Z,7.44
2018-01-08T00:52:30.233Z,7.43
2018-01-08T00:52:34.358Z,7.44
2018-01-08T00:52:38.694Z,7.44
2018-01-08T00:52:43.056Z,7.44
2018-01-08T00:52:47.304Z,7.44
2018-01-08T00:52:51.637Z,7.44
2018-01-08T00:52:55.874Z,7.44
2018-01-08T00:53:00.089Z,7.44
2018-01-08T00:53:04.301Z,7.44
2018-01-08T00:53:08.532Z,7.44
2018-01-08T00:53:12.813Z,7.44
2018-01-08T00:53:16.928Z,7.44
2018-01-08T00:53:20.953Z,7.44
2018-01-08T00:53:25.210Z,7.45
2018-01-08T00:53:29.562Z,7.44
2018-01-08T00:53:33.592Z,7.45
2018-01-08T00:53:37.711Z,7.44
2018-01-08T00:53:41.946Z,7.45
2018-01-08T00:53:46.179Z,7.45
2018-01-08T00:53:50.210Z,7.45
2018-01-08T00:53:54.600Z,7.44
2018-01-08T00:53:58.819Z,7.44
2018-01-08T00:54:03.156Z,7.44
2018-01-08T00:54:07.286Z,7.44
2018-01-08T00:54:11.508Z,7.45
2018-01-08T00:54:15.626Z,7.45
2018-01-08T00:54:20.020Z,7.46
2018-01-08T00:54:24.352Z,7.45
2018-01-08T00:54:28.262Z,7.45
2018-01-08T00:54:32.291Z,7.46
2018-01-08T00:54:36.403Z,7.46
2018-01-08T00:54:40.530Z,7.46
2018-01-08T00:54:44.641Z,7.45
2018-01-08T00:54:49.012Z,7.45
2018-01-08T00:54:53.243Z,7.46
2018-01-08T00:54:57.477Z,7.46
2018-01-08T00:55:02.046Z,7.46
2018-01-08T00:55:06.299Z,7.46
2018-01-08T00:55:10.437Z,7.44
2018-01-08T00:55:14.660Z,7.46
2018-01-08T00:55:19.000Z,7.46
2018-01-08T00:55:23.120Z,7.45
2018-01-08T00:55:27.446Z,7.45
2018-01-08T00:55:31.736Z,7.46
2018-01-08T00:55:35.989Z,7.46
2018-01-08T00:55:40.117Z,7.46
2018-01-08T00:55:44.354Z,7.46
2018-01-08T00:55:48.578Z,7.46
2018-01-08T00:55:52.597Z,7.46
2018-01-08T00:55:56.818Z,7.46
2018-01-08T00:56:00.943Z,7.46
2018-01-08T00:56:05.179Z,7.47
2018-01-08T00:56:09.323Z,7.46
2018-01-08T00:56:13.652Z,7.46